sensor_id;sensor_type;location;lat;lon;timestamp;P1;durP1;ratioP1;P2;durP2;ratioP2
64633;SDS011;51043;52.406;9.690;2023-02-19T00:01:23;20.60;;;7.27;;
64633;SDS011;51043;52.406;9.690;2023-02-19T00:03:54;15.97;;;6.87;;
64633;SDS011;51043;52.406;9.690;2023-02-19T00:06:23;15.80;;;6.97;;
64633;SDS011;51043;52.406;9.690;2023-02-19T00:08:51;15.00;;;6.60;;
64633;SDS011;51043;52.406;9.690;2023-02-19T00:11:20;15.30;;;7.13;;
64633;SDS011;51043;52.406;9.690;2023-02-19T00:13:48;17.13;;;7.73;;
64633;SDS011;51043;52.406;9.690;2023-02-19T00:16:17;17.27;;;6.87;;
64633;SDS011;51043;52.406;9.690;2023-02-19T00:18:56;12.73;;;6.30;;
64633;SDS011;51043;52.406;9.690;2023-02-19T00:21:24;12.07;;;5.73;;
64633;SDS011;51043;52.406;9.690;2023-02-19T00:23:52;15.97;;;6.70;;
64633;SDS011;51043;52.406;9.690;2023-02-19T00:26:22;13.07;;;6.07;;
64633;SDS011;51043;52.406;9.690;2023-02-19T00:28:49;15.87;;;6.97;;
64633;SDS011;51043;52.406;9.690;2023-02-19T00:33:50;13.10;;;6.13;;
64633;SDS011;51043;52.406;9.690;2023-02-19T00:36:19;14.03;;;7.40;;
64633;SDS011;51043;52.406;9.690;2023-02-19T00:38:46;11.80;;;6.70;;
64633;SDS011;51043;52.406;9.690;2023-02-19T00:41:15;12.40;;;6.47;;
64633;SDS011;51043;52.406;9.690;2023-02-19T00:43:53;14.67;;;7.50;;
64633;SDS011;51043;52.406;9.690;2023-02-19T00:46:22;12.13;;;8.20;;
64633;SDS011;51043;52.406;9.690;2023-02-19T00:48:50;15.43;;;8.87;;
64633;SDS011;51043;52.406;9.690;2023-02-19T00:51:18;15.87;;;9.03;;
64633;SDS011;51043;52.406;9.690;2023-02-19T00:53:46;15.33;;;9.43;;
64633;SDS011;51043;52.406;9.690;2023-02-19T00:56:14;16.20;;;9.77;;
64633;SDS011;51043;52.406;9.690;2023-02-19T00:58:41;19.83;;;11.40;;
64633;SDS011;51043;52.406;9.690;2023-02-19T01:01:08;17.17;;;11.03;;
64633;SDS011;51043;52.406;9.690;2023-02-19T01:03:36;19.87;;;12.37;;
64633;SDS011;51043;52.406;9.690;2023-02-19T01:06:04;20.47;;;13.13;;
64633;SDS011;51043;52.406;9.690;2023-02-19T01:08:32;25.83;;;13.20;;
64633;SDS011;51043;52.406;9.690;2023-02-19T01:10:59;22.20;;;14.47;;
64633;SDS011;51043;52.406;9.690;2023-02-19T01:13:28;23.17;;;14.03;;
64633;SDS011;51043;52.406;9.690;2023-02-19T01:16:02;23.93;;;15.23;;
64633;SDS011;51043;52.406;9.690;2023-02-19T01:18:29;29.03;;;16.13;;
64633;SDS011;51043;52.406;9.690;2023-02-19T01:20:57;28.57;;;16.73;;
64633;SDS011;51043;52.406;9.690;2023-02-19T01:23:23;31.37;;;16.63;;
64633;SDS011;51043;52.406;9.690;2023-02-19T01:25:50;26.97;;;17.30;;
64633;SDS011;51043;52.406;9.690;2023-02-19T01:28:17;17.67;;;12.80;;
64633;SDS011;51043;52.406;9.690;2023-02-19T01:30:44;32.83;;;18.93;;
64633;SDS011;51043;52.406;9.690;2023-02-19T01:33:11;28.77;;;16.43;;
64633;SDS011;51043;52.406;9.690;2023-02-19T01:35:38;13.77;;;9.40;;
64633;SDS011;51043;52.406;9.690;2023-02-19T01:38:06;18.70;;;11.33;;
64633;SDS011;51043;52.406;9.690;2023-02-19T01:40:33;13.87;;;9.13;;
64633;SDS011;51043;52.406;9.690;2023-02-19T01:43:00;7.57;;;5.60;;
64633;SDS011;51043;52.406;9.690;2023-02-19T01:45:33;10.43;;;5.53;;
64633;SDS011;51043;52.406;9.690;2023-02-19T01:48:05;4.97;;;3.50;;
64633;SDS011;51043;52.406;9.690;2023-02-19T01:50:44;5.00;;;2.80;;
64633;SDS011;51043;52.406;9.690;2023-02-19T01:53:16;3.93;;;2.67;;
64633;SDS011;51043;52.406;9.690;2023-02-19T01:55:47;3.93;;;2.90;;
64633;SDS011;51043;52.406;9.690;2023-02-19T01:58:17;4.37;;;2.97;;
64633;SDS011;51043;52.406;9.690;2023-02-19T02:00:44;6.40;;;2.67;;
64633;SDS011;51043;52.406;9.690;2023-02-19T02:03:12;3.00;;;2.30;;
64633;SDS011;51043;52.406;9.690;2023-02-19T02:05:43;3.00;;;2.20;;
64633;SDS011;51043;52.406;9.690;2023-02-19T02:08:23;2.90;;;2.00;;
64633;SDS011;51043;52.406;9.690;2023-02-19T02:11:09;4.07;;;2.07;;
64633;SDS011;51043;52.406;9.690;2023-02-19T02:13:36;2.17;;;1.97;;
64633;SDS011;51043;52.406;9.690;2023-02-19T02:21:29;3.97;;;2.30;;
64633;SDS011;51043;52.406;9.690;2023-02-19T02:30:02;5.20;;;2.77;;
64633;SDS011;51043;52.406;9.690;2023-02-19T02:32:34;5.37;;;3.37;;
64633;SDS011;51043;52.406;9.690;2023-02-19T02:35:21;5.10;;;4.10;;
64633;SDS011;51043;52.406;9.690;2023-02-19T02:37:51;8.20;;;5.10;;
64633;SDS011;51043;52.406;9.690;2023-02-19T02:40:22;8.03;;;5.47;;
64633;SDS011;51043;52.406;9.690;2023-02-19T02:42:49;9.20;;;6.20;;
64633;SDS011;51043;52.406;9.690;2023-02-19T02:48:27;11.67;;;7.77;;
64633;SDS011;51043;52.406;9.690;2023-02-19T02:54:05;21.80;;;11.73;;
64633;SDS011;51043;52.406;9.690;2023-02-19T02:56:54;17.90;;;10.83;;
64633;SDS011;51043;52.406;9.690;2023-02-19T02:59:26;24.47;;;15.47;;
64633;SDS011;51043;52.406;9.690;2023-02-19T03:02:00;20.33;;;12.47;;
64633;SDS011;51043;52.406;9.690;2023-02-19T03:05:08;26.73;;;15.57;;
64633;SDS011;51043;52.406;9.690;2023-02-19T03:08:04;22.30;;;16.43;;
64633;SDS011;51043;52.406;9.690;2023-02-19T03:10:38;24.80;;;15.23;;
64633;SDS011;51043;52.406;9.690;2023-02-19T03:13:10;10.90;;;8.03;;
64633;SDS011;51043;52.406;9.690;2023-02-19T03:16:01;5.93;;;4.47;;
64633;SDS011;51043;52.406;9.690;2023-02-19T03:18:53;2.50;;;2.20;;
64633;SDS011;51043;52.406;9.690;2023-02-19T03:21:40;3.00;;;2.17;;
64633;SDS011;51043;52.406;9.690;2023-02-19T03:24:11;2.23;;;2.00;;
64633;SDS011;51043;52.406;9.690;2023-02-19T03:26:58;1.97;;;1.80;;
64633;SDS011;51043;52.406;9.690;2023-02-19T03:29:36;2.10;;;1.90;;
64633;SDS011;51043;52.406;9.690;2023-02-19T03:32:11;4.07;;;1.70;;
64633;SDS011;51043;52.406;9.690;2023-02-19T03:34:50;2.50;;;1.93;;
64633;SDS011;51043;52.406;9.690;2023-02-19T03:37:23;2.53;;;2.10;;
64633;SDS011;51043;52.406;9.690;2023-02-19T03:39:54;2.27;;;2.07;;
64633;SDS011;51043;52.406;9.690;2023-02-19T03:45:23;2.30;;;2.10;;
64633;SDS011;51043;52.406;9.690;2023-02-19T03:48:15;2.50;;;2.00;;
64633;SDS011;51043;52.406;9.690;2023-02-19T03:51:07;2.60;;;2.30;;
64633;SDS011;51043;52.406;9.690;2023-02-19T03:54:15;4.90;;;2.70;;
64633;SDS011;51043;52.406;9.690;2023-02-19T03:56:45;3.20;;;2.40;;
64633;SDS011;51043;52.406;9.690;2023-02-19T03:59:15;3.00;;;2.30;;
64633;SDS011;51043;52.406;9.690;2023-02-19T04:01:47;2.40;;;2.20;;
64633;SDS011;51043;52.406;9.690;2023-02-19T04:04:33;2.30;;;2.10;;
64633;SDS011;51043;52.406;9.690;2023-02-19T04:07:03;2.77;;;2.10;;
64633;SDS011;51043;52.406;9.690;2023-02-19T04:09:38;3.23;;;2.17;;
64633;SDS011;51043;52.406;9.690;2023-02-19T04:12:13;3.73;;;2.40;;
64633;SDS011;51043;52.406;9.690;2023-02-19T04:14:48;3.00;;;2.70;;
64633;SDS011;51043;52.406;9.690;2023-02-19T04:17:21;3.03;;;2.57;;
64633;SDS011;51043;52.406;9.690;2023-02-19T04:19:52;3.10;;;2.60;;
64633;SDS011;51043;52.406;9.690;2023-02-19T04:22:21;4.00;;;2.80;;
64633;SDS011;51043;52.406;9.690;2023-02-19T04:24:49;2.80;;;2.50;;
64633;SDS011;51043;52.406;9.690;2023-02-19T04:27:18;3.93;;;3.03;;
64633;SDS011;51043;52.406;9.690;2023-02-19T04:29:45;2.40;;;2.20;;
64633;SDS011;51043;52.406;9.690;2023-02-19T04:32:12;2.37;;;2.17;;
64633;SDS011;51043;52.406;9.690;2023-02-19T04:34:39;2.40;;;2.20;;
64633;SDS011;51043;52.406;9.690;2023-02-19T04:37:06;2.37;;;2.17;;
64633;SDS011;51043;52.406;9.690;2023-02-19T04:39:33;3.50;;;2.50;;
64633;SDS011;51043;52.406;9.690;2023-02-19T04:42:00;2.50;;;2.10;;
64633;SDS011;51043;52.406;9.690;2023-02-19T04:44:27;2.40;;;2.20;;
64633;SDS011;51043;52.406;9.690;2023-02-19T04:46:53;2.77;;;2.57;;
64633;SDS011;51043;52.406;9.690;2023-02-19T04:49:21;2.20;;;2.00;;
64633;SDS011;51043;52.406;9.690;2023-02-19T04:51:47;3.10;;;2.50;;
64633;SDS011;51043;52.406;9.690;2023-02-19T04:54:14;1.73;;;1.63;;
64633;SDS011;51043;52.406;9.690;2023-02-19T04:56:41;1.63;;;1.53;;
64633;SDS011;51043;52.406;9.690;2023-02-19T04:59:08;1.40;;;1.30;;
64633;SDS011;51043;52.406;9.690;2023-02-19T05:01:35;3.50;;;1.40;;
64633;SDS011;51043;52.406;9.690;2023-02-19T05:04:02;1.20;;;1.10;;
64633;SDS011;51043;52.406;9.690;2023-02-19T05:06:30;1.23;;;1.13;;
64633;SDS011;51043;52.406;9.690;2023-02-19T05:08:57;1.60;;;1.10;;
64633;SDS011;51043;52.406;9.690;2023-02-19T05:11:23;1.33;;;1.23;;
64633;SDS011;51043;52.406;9.690;2023-02-19T05:13:50;1.33;;;1.23;;
64633;SDS011;51043;52.406;9.690;2023-02-19T05:16:17;2.13;;;1.93;;
64633;SDS011;51043;52.406;9.690;2023-02-19T05:18:44;1.60;;;1.50;;
64633;SDS011;51043;52.406;9.690;2023-02-19T05:21:12;1.93;;;1.60;;
64633;SDS011;51043;52.406;9.690;2023-02-19T05:23:40;1.97;;;1.77;;
64633;SDS011;51043;52.406;9.690;2023-02-19T05:26:08;2.40;;;1.80;;
64633;SDS011;51043;52.406;9.690;2023-02-19T05:28:37;2.40;;;1.80;;
64633;SDS011;51043;52.406;9.690;2023-02-19T05:31:05;2.30;;;2.10;;
64633;SDS011;51043;52.406;9.690;2023-02-19T05:33:33;2.40;;;2.20;;
64633;SDS011;51043;52.406;9.690;2023-02-19T05:36:03;2.57;;;2.37;;
64633;SDS011;51043;52.406;9.690;2023-02-19T05:38:34;4.50;;;2.50;;
64633;SDS011;51043;52.406;9.690;2023-02-19T05:41:21;2.97;;;2.30;;
64633;SDS011;51043;52.406;9.690;2023-02-19T05:43:53;4.10;;;2.63;;
64633;SDS011;51043;52.406;9.690;2023-02-19T05:46:22;3.07;;;2.70;;
64633;SDS011;51043;52.406;9.690;2023-02-19T05:48:51;4.20;;;2.83;;
64633;SDS011;51043;52.406;9.690;2023-02-19T05:51:19;5.23;;;3.00;;
64633;SDS011;51043;52.406;9.690;2023-02-19T05:53:51;4.93;;;3.00;;
64633;SDS011;51043;52.406;9.690;2023-02-19T05:59:13;3.47;;;3.00;;
64633;SDS011;51043;52.406;9.690;2023-02-19T06:01:48;3.40;;;2.40;;
64633;SDS011;51043;52.406;9.690;2023-02-19T06:04:19;4.50;;;2.67;;
64633;SDS011;51043;52.406;9.690;2023-02-19T06:06:46;3.70;;;2.20;;
64633;SDS011;51043;52.406;9.690;2023-02-19T06:09:13;3.00;;;2.00;;
64633;SDS011;51043;52.406;9.690;2023-02-19T06:11:40;4.13;;;1.70;;
64633;SDS011;51043;52.406;9.690;2023-02-19T06:14:09;1.80;;;1.70;;
64633;SDS011;51043;52.406;9.690;2023-02-19T06:16:37;4.60;;;1.83;;
64633;SDS011;51043;52.406;9.690;2023-02-19T06:19:04;2.00;;;1.43;;
64633;SDS011;51043;52.406;9.690;2023-02-19T06:21:31;2.33;;;1.40;;
64633;SDS011;51043;52.406;9.690;2023-02-19T06:23:58;3.03;;;1.50;;
64633;SDS011;51043;52.406;9.690;2023-02-19T06:26:30;2.87;;;1.50;;
64633;SDS011;51043;52.406;9.690;2023-02-19T06:28:57;6.10;;;1.93;;
64633;SDS011;51043;52.406;9.690;2023-02-19T06:31:23;2.60;;;1.70;;
64633;SDS011;51043;52.406;9.690;2023-02-19T06:33:51;5.30;;;1.77;;
64633;SDS011;51043;52.406;9.690;2023-02-19T06:36:18;4.30;;;1.83;;
64633;SDS011;51043;52.406;9.690;2023-02-19T06:38:46;3.13;;;1.80;;
64633;SDS011;51043;52.406;9.690;2023-02-19T06:41:15;4.10;;;1.80;;
64633;SDS011;51043;52.406;9.690;2023-02-19T06:43:42;5.93;;;2.10;;
64633;SDS011;51043;52.406;9.690;2023-02-19T06:46:09;4.70;;;2.00;;
64633;SDS011;51043;52.406;9.690;2023-02-19T06:48:37;3.97;;;2.27;;
64633;SDS011;51043;52.406;9.690;2023-02-19T06:51:05;2.87;;;2.17;;
64633;SDS011;51043;52.406;9.690;2023-02-19T06:53:32;4.13;;;2.57;;
64633;SDS011;51043;52.406;9.690;2023-02-19T06:56:00;4.10;;;2.63;;
64633;SDS011;51043;52.406;9.690;2023-02-19T06:58:30;6.87;;;3.07;;
64633;SDS011;51043;52.406;9.690;2023-02-19T07:00:57;4.07;;;2.67;;
64633;SDS011;51043;52.406;9.690;2023-02-19T07:03:24;4.07;;;2.80;;
64633;SDS011;51043;52.406;9.690;2023-02-19T07:05:51;4.70;;;3.50;;
64633;SDS011;51043;52.406;9.690;2023-02-19T07:08:18;5.33;;;3.20;;
64633;SDS011;51043;52.406;9.690;2023-02-19T07:10:52;4.73;;;3.47;;
64633;SDS011;51043;52.406;9.690;2023-02-19T07:13:22;4.23;;;3.73;;
64633;SDS011;51043;52.406;9.690;2023-02-19T07:15:50;4.40;;;3.30;;
64633;SDS011;51043;52.406;9.690;2023-02-19T07:18:17;4.37;;;3.67;;
64633;SDS011;51043;52.406;9.690;2023-02-19T07:20:45;5.07;;;3.90;;
64633;SDS011;51043;52.406;9.690;2023-02-19T07:23:12;7.10;;;4.40;;
64633;SDS011;51043;52.406;9.690;2023-02-19T07:25:39;4.97;;;4.47;;
64633;SDS011;51043;52.406;9.690;2023-02-19T07:28:07;4.97;;;4.40;;
64633;SDS011;51043;52.406;9.690;2023-02-19T07:30:34;6.10;;;5.50;;
64633;SDS011;51043;52.406;9.690;2023-02-19T07:33:01;5.93;;;4.90;;
64633;SDS011;51043;52.406;9.690;2023-02-19T07:35:27;6.57;;;4.77;;
64633;SDS011;51043;52.406;9.690;2023-02-19T07:37:54;7.00;;;5.03;;
64633;SDS011;51043;52.406;9.690;2023-02-19T07:40:21;6.80;;;5.53;;
64633;SDS011;51043;52.406;9.690;2023-02-19T07:42:48;7.57;;;5.77;;
64633;SDS011;51043;52.406;9.690;2023-02-19T07:45:15;7.03;;;5.63;;
64633;SDS011;51043;52.406;9.690;2023-02-19T07:47:42;6.37;;;5.73;;
64633;SDS011;51043;52.406;9.690;2023-02-19T07:50:08;5.87;;;4.97;;
64633;SDS011;51043;52.406;9.690;2023-02-19T07:52:39;5.63;;;4.87;;
64633;SDS011;51043;52.406;9.690;2023-02-19T07:55:06;6.23;;;5.37;;
64633;SDS011;51043;52.406;9.690;2023-02-19T07:57:32;5.57;;;4.90;;
64633;SDS011;51043;52.406;9.690;2023-02-19T07:59:59;5.53;;;4.73;;
64633;SDS011;51043;52.406;9.690;2023-02-19T08:02:26;5.73;;;5.00;;
64633;SDS011;51043;52.406;9.690;2023-02-19T08:05:13;5.70;;;4.80;;
64633;SDS011;51043;52.406;9.690;2023-02-19T08:07:40;4.67;;;4.10;;
64633;SDS011;51043;52.406;9.690;2023-02-19T08:10:07;5.03;;;4.50;;
64633;SDS011;51043;52.406;9.690;2023-02-19T08:12:59;5.17;;;4.50;;
64633;SDS011;51043;52.406;9.690;2023-02-19T08:15:54;5.20;;;4.23;;
64633;SDS011;51043;52.406;9.690;2023-02-19T08:18:36;7.43;;;4.60;;
64633;SDS011;51043;52.406;9.690;2023-02-19T08:21:03;6.23;;;4.87;;
64633;SDS011;51043;52.406;9.690;2023-02-19T08:23:29;5.40;;;4.70;;
64633;SDS011;51043;52.406;9.690;2023-02-19T08:25:57;5.77;;;4.70;;
64633;SDS011;51043;52.406;9.690;2023-02-19T08:28:25;4.93;;;4.20;;
64633;SDS011;51043;52.406;9.690;2023-02-19T08:30:52;4.57;;;4.10;;
64633;SDS011;51043;52.406;9.690;2023-02-19T08:33:23;5.43;;;4.30;;
64633;SDS011;51043;52.406;9.690;2023-02-19T08:35:50;4.40;;;3.50;;
64633;SDS011;51043;52.406;9.690;2023-02-19T08:38:17;4.20;;;3.40;;
64633;SDS011;51043;52.406;9.690;2023-02-19T08:40:43;4.00;;;2.90;;
64633;SDS011;51043;52.406;9.690;2023-02-19T08:43:11;5.20;;;3.40;;
64633;SDS011;51043;52.406;9.690;2023-02-19T08:45:40;3.87;;;2.60;;
64633;SDS011;51043;52.406;9.690;2023-02-19T08:48:09;5.47;;;2.90;;
64633;SDS011;51043;52.406;9.690;2023-02-19T08:50:37;5.43;;;3.00;;
64633;SDS011;51043;52.406;9.690;2023-02-19T08:53:04;3.00;;;2.80;;
64633;SDS011;51043;52.406;9.690;2023-02-19T08:55:32;5.80;;;2.90;;
64633;SDS011;51043;52.406;9.690;2023-02-19T08:57:59;3.77;;;2.70;;
64633;SDS011;51043;52.406;9.690;2023-02-19T09:00:25;2.93;;;2.43;;
64633;SDS011;51043;52.406;9.690;2023-02-19T09:02:52;4.43;;;2.80;;
64633;SDS011;51043;52.406;9.690;2023-02-19T09:05:19;5.83;;;3.80;;
64633;SDS011;51043;52.406;9.690;2023-02-19T09:07:46;6.10;;;4.73;;
64633;SDS011;51043;52.406;9.690;2023-02-19T09:10:13;7.67;;;4.93;;
64633;SDS011;51043;52.406;9.690;2023-02-19T09:12:40;4.97;;;4.47;;
64633;SDS011;51043;52.406;9.690;2023-02-19T09:15:07;6.50;;;4.40;;
64633;SDS011;51043;52.406;9.690;2023-02-19T09:17:34;9.37;;;7.03;;
64633;SDS011;51043;52.406;9.690;2023-02-19T09:20:01;9.50;;;6.60;;
64633;SDS011;51043;52.406;9.690;2023-02-19T09:22:29;7.93;;;5.60;;
64633;SDS011;51043;52.406;9.690;2023-02-19T09:24:56;9.07;;;5.40;;
64633;SDS011;51043;52.406;9.690;2023-02-19T09:27:22;9.47;;;6.17;;
64633;SDS011;51043;52.406;9.690;2023-02-19T09:29:49;8.23;;;5.67;;
64633;SDS011;51043;52.406;9.690;2023-02-19T09:32:16;6.10;;;4.83;;
64633;SDS011;51043;52.406;9.690;2023-02-19T09:34:44;5.77;;;4.70;;
64633;SDS011;51043;52.406;9.690;2023-02-19T09:37:11;5.63;;;4.60;;
64633;SDS011;51043;52.406;9.690;2023-02-19T09:39:38;6.53;;;4.30;;
64633;SDS011;51043;52.406;9.690;2023-02-19T09:42:10;4.50;;;3.80;;
64633;SDS011;51043;52.406;9.690;2023-02-19T09:44:39;5.73;;;4.77;;
64633;SDS011;51043;52.406;9.690;2023-02-19T09:47:12;7.20;;;4.17;;
64633;SDS011;51043;52.406;9.690;2023-02-19T09:49:46;5.97;;;4.20;;
64633;SDS011;51043;52.406;9.690;2023-02-19T09:52:18;6.47;;;3.70;;
64633;SDS011;51043;52.406;9.690;2023-02-19T09:55:02;6.03;;;4.07;;
64633;SDS011;51043;52.406;9.690;2023-02-19T09:57:38;7.80;;;4.07;;
64633;SDS011;51043;52.406;9.690;2023-02-19T10:00:12;7.57;;;5.37;;
64633;SDS011;51043;52.406;9.690;2023-02-19T10:02:45;7.73;;;5.33;;
64633;SDS011;51043;52.406;9.690;2023-02-19T10:05:12;10.40;;;7.63;;
64633;SDS011;51043;52.406;9.690;2023-02-19T10:07:41;8.93;;;5.23;;
64633;SDS011;51043;52.406;9.690;2023-02-19T10:12:41;7.37;;;4.77;;
64633;SDS011;51043;52.406;9.690;2023-02-19T10:15:16;6.17;;;3.37;;
64633;SDS011;51043;52.406;9.690;2023-02-19T10:17:52;7.70;;;3.43;;
64633;SDS011;51043;52.406;9.690;2023-02-19T10:20:20;5.77;;;3.20;;
64633;SDS011;51043;52.406;9.690;2023-02-19T10:22:58;4.90;;;2.70;;
64633;SDS011;51043;52.406;9.690;2023-02-19T10:25:28;4.47;;;2.20;;
64633;SDS011;51043;52.406;9.690;2023-02-19T10:27:57;4.57;;;2.23;;
64633;SDS011;51043;52.406;9.690;2023-02-19T10:30:33;4.13;;;2.43;;
64633;SDS011;51043;52.406;9.690;2023-02-19T10:33:03;5.50;;;2.77;;
64633;SDS011;51043;52.406;9.690;2023-02-19T10:35:37;5.03;;;2.70;;
64633;SDS011;51043;52.406;9.690;2023-02-19T10:38:20;5.80;;;2.90;;
64633;SDS011;51043;52.406;9.690;2023-02-19T10:41:01;4.90;;;2.50;;
64633;SDS011;51043;52.406;9.690;2023-02-19T10:43:37;4.50;;;2.60;;
64633;SDS011;51043;52.406;9.690;2023-02-19T10:46:15;3.93;;;2.70;;
64633;SDS011;51043;52.406;9.690;2023-02-19T10:48:45;4.80;;;2.63;;
64633;SDS011;51043;52.406;9.690;2023-02-19T10:51:19;3.10;;;1.97;;
64633;SDS011;51043;52.406;9.690;2023-02-19T10:54:04;4.67;;;2.17;;
64633;SDS011;51043;52.406;9.690;2023-02-19T10:56:45;3.17;;;2.10;;
64633;SDS011;51043;52.406;9.690;2023-02-19T10:59:13;5.93;;;2.70;;
64633;SDS011;51043;52.406;9.690;2023-02-19T11:01:57;8.20;;;3.07;;
64633;SDS011;51043;52.406;9.690;2023-02-19T11:04:27;8.13;;;2.70;;
64633;SDS011;51043;52.406;9.690;2023-02-19T11:07:09;4.47;;;2.20;;
64633;SDS011;51043;52.406;9.690;2023-02-19T11:09:42;6.73;;;2.70;;
64633;SDS011;51043;52.406;9.690;2023-02-19T11:12:12;5.07;;;2.40;;
64633;SDS011;51043;52.406;9.690;2023-02-19T11:14:40;4.73;;;2.43;;
64633;SDS011;51043;52.406;9.690;2023-02-19T11:17:19;3.97;;;2.20;;
64633;SDS011;51043;52.406;9.690;2023-02-19T11:19:51;6.00;;;2.37;;
64633;SDS011;51043;52.406;9.690;2023-02-19T11:22:34;4.43;;;2.10;;
64633;SDS011;51043;52.406;9.690;2023-02-19T11:25:22;6.00;;;2.03;;
64633;SDS011;51043;52.406;9.690;2023-02-19T11:30:36;6.17;;;2.50;;
64633;SDS011;51043;52.406;9.690;2023-02-19T11:38:46;6.70;;;2.00;;
64633;SDS011;51043;52.406;9.690;2023-02-19T11:44:16;5.13;;;1.90;;
64633;SDS011;51043;52.406;9.690;2023-02-19T11:55:17;6.70;;;2.00;;
64633;SDS011;51043;52.406;9.690;2023-02-19T12:01:15;5.50;;;1.90;;
64633;SDS011;51043;52.406;9.690;2023-02-19T12:12:00;3.97;;;1.83;;
64633;SDS011;51043;52.406;9.690;2023-02-19T12:20:17;6.10;;;1.90;;
64633;SDS011;51043;52.406;9.690;2023-02-19T12:23:00;6.30;;;1.90;;
64633;SDS011;51043;52.406;9.690;2023-02-19T12:33:48;4.73;;;1.70;;
64633;SDS011;51043;52.406;9.690;2023-02-19T12:39:28;6.00;;;1.50;;
64633;SDS011;51043;52.406;9.690;2023-02-19T12:44:53;4.50;;;1.60;;
64633;SDS011;51043;52.406;9.690;2023-02-19T12:47:25;3.73;;;1.70;;
64633;SDS011;51043;52.406;9.690;2023-02-19T12:52:46;7.67;;;1.87;;
64633;SDS011;51043;52.406;9.690;2023-02-19T12:57:49;4.73;;;1.80;;
64633;SDS011;51043;52.406;9.690;2023-02-19T13:00:23;5.37;;;1.73;;
64633;SDS011;51043;52.406;9.690;2023-02-19T13:05:49;2.73;;;1.50;;
64633;SDS011;51043;52.406;9.690;2023-02-19T13:11:31;6.33;;;1.83;;
64633;SDS011;51043;52.406;9.690;2023-02-19T13:14:06;6.17;;;1.70;;
64633;SDS011;51043;52.406;9.690;2023-02-19T13:16:46;4.90;;;2.17;;
64633;SDS011;51043;52.406;9.690;2023-02-19T13:19:18;5.90;;;1.80;;
64633;SDS011;51043;52.406;9.690;2023-02-19T13:21:45;8.30;;;1.93;;
64633;SDS011;51043;52.406;9.690;2023-02-19T13:24:38;2.77;;;1.70;;
64633;SDS011;51043;52.406;9.690;2023-02-19T13:27:22;4.37;;;1.80;;
64633;SDS011;51043;52.406;9.690;2023-02-19T13:30:05;8.37;;;2.50;;
64633;SDS011;51043;52.406;9.690;2023-02-19T13:35:36;3.83;;;1.60;;
64633;SDS011;51043;52.406;9.690;2023-02-19T13:38:19;7.63;;;2.17;;
64633;SDS011;51043;52.406;9.690;2023-02-19T13:40:53;5.63;;;2.00;;
64633;SDS011;51043;52.406;9.690;2023-02-19T13:43:23;3.63;;;1.43;;
64633;SDS011;51043;52.406;9.690;2023-02-19T13:45:56;2.70;;;1.50;;
64633;SDS011;51043;52.406;9.690;2023-02-19T13:48:30;5.50;;;1.80;;
64633;SDS011;51043;52.406;9.690;2023-02-19T14:04:37;4.90;;;1.80;;
64633;SDS011;51043;52.406;9.690;2023-02-19T14:14:42;5.37;;;1.87;;
64633;SDS011;51043;52.406;9.690;2023-02-19T14:17:39;5.27;;;1.57;;
64633;SDS011;51043;52.406;9.690;2023-02-19T14:30:52;4.53;;;1.97;;
64633;SDS011;51043;52.406;9.690;2023-02-19T14:33:29;5.27;;;3.30;;
64633;SDS011;51043;52.406;9.690;2023-02-19T14:38:48;4.40;;;1.83;;
64633;SDS011;51043;52.406;9.690;2023-02-19T14:41:25;4.30;;;1.40;;
64633;SDS011;51043;52.406;9.690;2023-02-19T14:43:55;7.13;;;1.80;;
64633;SDS011;51043;52.406;9.690;2023-02-19T14:46:33;2.73;;;1.60;;
64633;SDS011;51043;52.406;9.690;2023-02-19T14:49:06;5.87;;;1.60;;
64633;SDS011;51043;52.406;9.690;2023-02-19T14:51:47;5.00;;;2.13;;
64633;SDS011;51043;52.406;9.690;2023-02-19T14:54:20;6.30;;;2.00;;
64633;SDS011;51043;52.406;9.690;2023-02-19T14:57:03;4.23;;;1.60;;
64633;SDS011;51043;52.406;9.690;2023-02-19T14:59:37;5.37;;;1.83;;
64633;SDS011;51043;52.406;9.690;2023-02-19T15:02:13;3.57;;;1.70;;
64633;SDS011;51043;52.406;9.690;2023-02-19T15:04:42;3.90;;;1.60;;
64633;SDS011;51043;52.406;9.690;2023-02-19T15:07:12;3.33;;;2.00;;
64633;SDS011;51043;52.406;9.690;2023-02-19T15:09:42;6.00;;;2.00;;
64633;SDS011;51043;52.406;9.690;2023-02-19T15:12:14;4.93;;;2.07;;
64633;SDS011;51043;52.406;9.690;2023-02-19T15:14:49;4.67;;;2.00;;
64633;SDS011;51043;52.406;9.690;2023-02-19T15:17:21;5.77;;;2.57;;
64633;SDS011;51043;52.406;9.690;2023-02-19T15:19:56;5.53;;;2.70;;
64633;SDS011;51043;52.406;9.690;2023-02-19T15:22:25;4.53;;;2.10;;
64633;SDS011;51043;52.406;9.690;2023-02-19T15:25:00;3.37;;;2.23;;
64633;SDS011;51043;52.406;9.690;2023-02-19T15:27:30;5.70;;;2.30;;
64633;SDS011;51043;52.406;9.690;2023-02-19T15:29:58;4.53;;;2.30;;
64633;SDS011;51043;52.406;9.690;2023-02-19T15:32:26;4.13;;;2.30;;
64633;SDS011;51043;52.406;9.690;2023-02-19T15:35:00;5.37;;;2.77;;
64633;SDS011;51043;52.406;9.690;2023-02-19T15:37:32;5.63;;;2.50;;
64633;SDS011;51043;52.406;9.690;2023-02-19T15:40:03;7.47;;;2.80;;
64633;SDS011;51043;52.406;9.690;2023-02-19T15:42:33;8.17;;;3.00;;
64633;SDS011;51043;52.406;9.690;2023-02-19T15:45:15;5.87;;;2.80;;
64633;SDS011;51043;52.406;9.690;2023-02-19T15:47:58;5.50;;;3.10;;
64633;SDS011;51043;52.406;9.690;2023-02-19T15:50:34;5.37;;;3.07;;
64633;SDS011;51043;52.406;9.690;2023-02-19T15:53:12;7.00;;;3.23;;
64633;SDS011;51043;52.406;9.690;2023-02-19T15:55:58;5.47;;;3.23;;
64633;SDS011;51043;52.406;9.690;2023-02-19T15:58:35;7.57;;;3.30;;
64633;SDS011;51043;52.406;9.690;2023-02-19T16:01:28;5.63;;;2.90;;
64633;SDS011;51043;52.406;9.690;2023-02-19T16:04:00;7.17;;;3.73;;
64633;SDS011;51043;52.406;9.690;2023-02-19T16:06:28;4.83;;;3.37;;
64633;SDS011;51043;52.406;9.690;2023-02-19T16:09:03;7.67;;;3.30;;
64633;SDS011;51043;52.406;9.690;2023-02-19T16:11:37;5.83;;;3.20;;
64633;SDS011;51043;52.406;9.690;2023-02-19T16:14:31;6.37;;;3.50;;
64633;SDS011;51043;52.406;9.690;2023-02-19T16:19:40;7.43;;;3.77;;
64633;SDS011;51043;52.406;9.690;2023-02-19T16:22:08;5.47;;;3.40;;
64633;SDS011;51043;52.406;9.690;2023-02-19T16:24:39;8.70;;;4.33;;
64633;SDS011;51043;52.406;9.690;2023-02-19T16:27:11;9.00;;;3.93;;
64633;SDS011;51043;52.406;9.690;2023-02-19T16:29:51;6.43;;;3.67;;
64633;SDS011;51043;52.406;9.690;2023-02-19T16:32:17;6.80;;;3.83;;
64633;SDS011;51043;52.406;9.690;2023-02-19T16:34:45;6.40;;;3.50;;
64633;SDS011;51043;52.406;9.690;2023-02-19T16:37:30;6.17;;;3.80;;
64633;SDS011;51043;52.406;9.690;2023-02-19T16:42:36;5.90;;;3.47;;
64633;SDS011;51043;52.406;9.690;2023-02-19T16:45:31;8.83;;;3.47;;
64633;SDS011;51043;52.406;9.690;2023-02-19T16:47:58;4.80;;;3.63;;
64633;SDS011;51043;52.406;9.690;2023-02-19T16:50:25;6.03;;;3.23;;
64633;SDS011;51043;52.406;9.690;2023-02-19T16:52:56;7.87;;;3.70;;
64633;SDS011;51043;52.406;9.690;2023-02-19T16:55:27;7.13;;;3.60;;
64633;SDS011;51043;52.406;9.690;2023-02-19T16:57:55;7.33;;;3.70;;
64633;SDS011;51043;52.406;9.690;2023-02-19T17:00:27;6.77;;;3.57;;
64633;SDS011;51043;52.406;9.690;2023-02-19T17:02:57;5.17;;;3.43;;
64633;SDS011;51043;52.406;9.690;2023-02-19T17:05:27;5.17;;;3.37;;
64633;SDS011;51043;52.406;9.690;2023-02-19T17:07:56;6.20;;;3.80;;
64633;SDS011;51043;52.406;9.690;2023-02-19T17:10:24;9.87;;;5.47;;
64633;SDS011;51043;52.406;9.690;2023-02-19T17:12:53;7.43;;;4.37;;
64633;SDS011;51043;52.406;9.690;2023-02-19T17:15:21;14.70;;;5.87;;
64633;SDS011;51043;52.406;9.690;2023-02-19T17:17:48;11.57;;;4.67;;
64633;SDS011;51043;52.406;9.690;2023-02-19T17:20:25;11.10;;;6.00;;
64633;SDS011;51043;52.406;9.690;2023-02-19T17:22:55;13.90;;;8.30;;
64633;SDS011;51043;52.406;9.690;2023-02-19T17:25:22;12.60;;;7.27;;
64633;SDS011;51043;52.406;9.690;2023-02-19T17:27:49;13.63;;;7.93;;